createdAt,value
2019-05-19T00:00:07.626Z,100326.38
2019-05-19T00:02:36.422Z,100328.30
2019-05-19T00:05:06.739Z,100322.05
2019-05-19T00:07:35.601Z,100317.48
2019-05-19T00:10:07.809Z,100317.47
2019-05-19T00:12:36.681Z,100328.32
2019-05-19T00:15:06.632Z,100316.42
2019-05-19T00:17:35.509Z,100326.47
2019-05-19T00:20:07.940Z,100314.77
2019-05-19T00:22:36.698Z,100314.77
2019-05-19T00:25:06.537Z,100314.22
2019-05-19T00:27:35.330Z,100321.00
2019-05-19T00:30:08.118Z,100315.33
2019-05-19T00:32:36.959Z,100313.97
2019-05-19T00:35:08.152Z,100302.61
2019-05-19T00:37:36.842Z,100171.23
2019-05-19T00:40:07.030Z,100303.47
2019-05-19T00:42:35.772Z,100314.34
2019-05-19T00:45:07.258Z,100308.91
2019-05-19T00:47:36.050Z,100319.21
2019-05-19T00:50:06.993Z,100307.02
2019-05-19T00:52:35.919Z,100273.73
2019-05-19T00:55:06.853Z,100304.31
2019-05-19T00:57:37.198Z,100302.43
2019-05-19T01:00:09.077Z,100300.51
2019-05-19T01:02:37.924Z,100300.78
2019-05-19T01:05:08.128Z,100298.91
2019-05-19T01:07:38.641Z,100299.44
2019-05-19T01:10:09.020Z,100291.34
2019-05-19T01:12:37.842Z,100296.48
2019-05-19T01:15:09.225Z,100298.91
2019-05-19T01:17:37.990Z,100294.03
2019-05-19T01:20:08.357Z,100295.68
2019-05-19T01:22:37.306Z,100292.96
2019-05-19T01:25:08.316Z,100295.14
2019-05-19T01:27:37.237Z,100298.36
2019-05-19T01:30:11.402Z,100295.94
2019-05-19T01:32:40.175Z,100293.78
2019-05-19T01:35:09.179Z,100298.64
2019-05-19T01:37:37.931Z,100297.81
2019-05-19T01:40:09.303Z,100290.27
2019-05-19T01:42:38.124Z,100287.02
2019-05-19T01:45:08.277Z,100285.36
2019-05-19T01:47:37.200Z,100288.35
2019-05-19T01:50:17.795Z,100292.13
2019-05-19T01:52:38.881Z,100298.89
2019-05-19T01:55:08.365Z,100299.17
2019-05-19T01:57:37.111Z,100293.78
2019-05-19T02:00:08.868Z,100289.41
2019-05-19T02:02:37.696Z,100293.22
2019-05-19T02:05:09.453Z,100290.52
2019-05-19T02:07:38.323Z,100285.91
2019-05-19T02:10:09.660Z,100289.70
2019-05-19T02:12:38.471Z,100287.00
2019-05-19T02:15:07.515Z,100285.09
2019-05-19T02:17:36.282Z,100292.66
2019-05-19T02:20:07.609Z,100297.28
2019-05-19T02:22:36.376Z,100294.02
2019-05-19T02:25:06.943Z,100291.57
2019-05-19T02:27:35.735Z,100291.58
2019-05-19T02:30:07.627Z,100283.43
2019-05-19T02:32:36.471Z,100266.64
2019-05-19T02:35:07.028Z,100287.52
2019-05-19T02:37:35.767Z,100282.33
2019-05-19T02:40:06.827Z,100282.33
2019-05-19T02:42:38.583Z,100292.33
2019-05-19T02:45:08.933Z,100276.64
2019-05-19T02:47:40.644Z,100279.09
2019-05-19T02:50:09.735Z,100279.09
2019-05-19T02:52:41.475Z,100281.27
2019-05-19T02:55:10.370Z,100285.34
2019-05-19T02:57:40.815Z,100275.61
2019-05-19T03:00:10.892Z,100284.50
2019-05-19T03:02:39.688Z,100285.59
2019-05-19T03:05:09.496Z,100285.06
2019-05-19T03:07:38.310Z,100282.33
2019-05-19T03:10:08.192Z,100288.02
2019-05-19T03:12:36.976Z,100278.27
2019-05-19T03:15:07.044Z,100278.84
2019-05-19T03:17:35.773Z,100281.77
2019-05-19T03:20:06.741Z,100286.62
2019-05-19T03:22:35.521Z,100243.56
2019-05-19T03:25:06.847Z,100276.63
2019-05-19T03:27:35.582Z,100272.55
2019-05-19T03:30:27.833Z,100276.59
2019-05-19T03:33:00.942Z,100274.71
2019-05-19T03:35:29.756Z,100277.45
2019-05-19T03:37:58.530Z,100282.61
2019-05-19T03:40:27.350Z,100276.67
2019-05-19T03:42:56.149Z,100278.81
2019-05-19T03:45:24.886Z,100275.32
2019-05-19T03:47:53.624Z,100276.39
2019-05-19T03:50:22.407Z,100278.84
2019-05-19T03:52:51.144Z,100270.73
2019-05-19T03:55:19.971Z,100278.28
2019-05-19T03:57:48.743Z,100281.30
2019-05-19T04:00:18.322Z,100282.92
2019-05-19T04:02:47.065Z,100272.92
2019-05-19T04:05:15.936Z,100279.42
2019-05-19T04:07:44.749Z,100284.58
2019-05-19T04:10:15.236Z,100271.58
2019-05-19T04:12:43.983Z,100277.28
2019-05-19T04:15:12.972Z,100269.69
2019-05-19T04:17:41.726Z,100276.46
2019-05-19T04:20:11.293Z,100259.95
2019-05-19T04:22:40.165Z,100263.75
2019-05-19T04:25:09.009Z,100266.16
2019-05-19T04:27:37.773Z,100266.16
2019-05-19T04:30:08.482Z,100270.18
2019-05-19T04:32:37.355Z,100281.73
2019-05-19T04:35:08.109Z,100279.36
2019-05-19T04:37:36.868Z,100283.28
2019-05-19T04:40:07.386Z,100278.06
2019-05-19T04:42:36.133Z,100284.47
2019-05-19T04:45:05.319Z,100285.91
2019-05-19T04:47:34.057Z,100232.38
2019-05-19T04:50:02.791Z,100281.77
2019-05-19T04:52:31.825Z,100283.44
2019-05-19T04:55:00.699Z,100288.89
2019-05-19T04:57:29.449Z,100292.52
2019-05-19T04:59:59.402Z,100295.24
2019-05-19T05:02:28.366Z,100293.77
2019-05-19T05:04:57.201Z,100289.38
2019-05-19T05:07:26.018Z,100290.14
2019-05-19T05:09:56.669Z,100286.06
2019-05-19T05:12:25.414Z,100285.38
2019-05-19T05:14:54.200Z,100290.13
2019-05-19T05:17:23.014Z,100287.44
2019-05-19T05:19:51.748Z,100283.45
2019-05-19T05:22:22.451Z,100285.98
2019-05-19T05:25:06.418Z,100279.41
2019-05-19T05:27:35.248Z,100273.14
2019-05-19T05:30:07.779Z,100281.27
2019-05-19T05:32:41.025Z,100288.22
2019-05-19T05:35:10.620Z,100288.22
2019-05-19T05:37:39.360Z,100285.86
2019-05-19T05:40:09.109Z,100285.08
2019-05-19T05:42:37.843Z,100289.86
2019-05-19T05:45:08.060Z,100288.08
2019-05-19T05:47:36.832Z,100293.17
2019-05-19T05:50:09.691Z,100289.40
2019-05-19T05:52:39.172Z,100299.59
2019-05-19T05:55:09.246Z,100297.67
2019-05-19T05:57:38.050Z,100295.32
2019-05-19T06:00:09.092Z,100296.38
2019-05-19T06:02:37.852Z,100322.41
2019-05-19T06:05:07.928Z,100285.75
2019-05-19T06:07:36.693Z,100289.84
2019-05-19T06:10:08.089Z,100291.36
2019-05-19T06:12:36.829Z,100285.88
2019-05-19T06:15:06.876Z,100294.77
2019-05-19T06:17:35.694Z,100293.50
2019-05-19T06:20:07.702Z,100291.24
2019-05-19T06:22:37.034Z,100182.27
2019-05-19T06:25:06.990Z,100303.08
2019-05-19T06:27:35.855Z,100302.13
2019-05-19T06:30:08.673Z,100303.63
2019-05-19T06:32:38.582Z,100296.53
2019-05-19T06:35:07.622Z,100299.39
2019-05-19T06:37:36.543Z,100306.13
2019-05-19T06:40:07.282Z,100309.70
2019-05-19T06:42:36.264Z,100305.50
2019-05-19T06:45:07.228Z,100308.02
2019-05-19T06:47:36.020Z,100304.55
2019-05-19T06:50:08.169Z,100305.37
2019-05-19T06:52:36.920Z,100204.52
2019-05-19T06:55:07.602Z,100307.13
2019-05-19T06:57:36.440Z,100310.94
2019-05-19T07:00:07.542Z,100312.59
2019-05-19T07:02:36.578Z,100304.25
2019-05-19T07:05:08.399Z,100309.05
2019-05-19T07:07:37.179Z,100313.56
2019-05-19T07:10:08.598Z,100310.59
2019-05-19T07:12:37.474Z,100306.81
2019-05-19T07:15:07.417Z,100306.36
2019-05-19T07:17:36.283Z,100304.79
2019-05-19T07:20:06.475Z,100303.68
2019-05-19T07:22:37.535Z,100307.56
2019-05-19T07:25:08.101Z,100300.88
2019-05-19T07:27:36.946Z,100303.31
2019-05-19T07:30:09.452Z,100304.98
2019-05-19T07:32:38.239Z,100307.87
2019-05-19T07:35:07.775Z,100301.78
2019-05-19T07:37:36.547Z,100309.16
2019-05-19T07:40:06.963Z,100305.73
2019-05-19T07:42:35.758Z,100303.84
2019-05-19T07:45:05.905Z,100297.31
2019-05-19T07:47:35.238Z,100301.89
2019-05-19T07:50:04.998Z,100295.84
2019-05-19T07:52:33.805Z,100298.61
2019-05-19T07:55:02.584Z,100300.09
2019-05-19T07:57:31.436Z,100297.14
2019-05-19T08:00:00.216Z,100301.92
2019-05-19T08:02:29.107Z,100307.73
2019-05-19T08:04:57.866Z,100294.89
2019-05-19T08:07:26.672Z,100301.17
2019-05-19T08:09:55.443Z,100286.38
2019-05-19T08:12:24.266Z,100288.70
2019-05-19T08:14:53.095Z,100290.39
2019-05-19T08:17:21.867Z,100295.92
2019-05-19T08:19:50.628Z,100289.20
2019-05-19T08:22:19.568Z,100297.63
2019-05-19T08:24:48.315Z,100296.22
2019-05-19T08:27:17.055Z,100298.39
2019-05-19T08:29:46.211Z,100298.03
2019-05-19T08:32:14.958Z,100292.27
2019-05-19T08:34:43.707Z,100292.51
2019-05-19T08:37:12.472Z,100298.11
2019-05-19T08:39:41.222Z,100297.74
2019-05-19T08:42:10.100Z,100299.86
2019-05-19T08:44:38.848Z,100296.58
2019-05-19T08:47:08.538Z,100294.51
2019-05-19T08:49:37.302Z,100284.96
2019-05-19T08:52:09.299Z,100284.44
2019-05-19T08:54:38.366Z,100287.80
2019-05-19T08:57:07.136Z,100282.78
2019-05-19T08:59:35.897Z,100274.41
2019-05-19T09:02:05.334Z,100281.47
2019-05-19T09:04:34.122Z,100244.68
2019-05-19T09:07:02.856Z,100281.37
2019-05-19T09:09:31.615Z,100282.34
2019-05-19T09:12:00.443Z,100289.78
2019-05-19T09:14:29.228Z,100286.45
2019-05-19T09:16:58.014Z,100287.41
2019-05-19T09:19:26.857Z,100289.15
2019-05-19T09:21:55.621Z,100279.54
2019-05-19T09:24:30.404Z,100268.80
2019-05-19T09:26:54.944Z,100269.16
2019-05-19T09:29:23.699Z,100267.30
2019-05-19T09:31:52.619Z,100283.42
2019-05-19T09:34:21.506Z,100277.97
2019-05-19T09:36:50.325Z,100270.68
2019-05-19T09:39:19.080Z,100264.52
2019-05-19T09:41:47.910Z,100263.59
2019-05-19T09:44:16.675Z,100267.34
2019-05-19T09:46:45.424Z,100266.37
2019-05-19T09:49:32.556Z,100262.67
2019-05-19T09:52:03.287Z,100255.75
2019-05-19T09:54:44.208Z,100256.96
2019-05-19T09:57:02.450Z,100252.14
2019-05-19T09:59:31.283Z,100250.12
2019-05-19T10:02:00.082Z,100245.53
2019-05-19T10:04:28.944Z,100246.75
2019-05-19T10:06:57.693Z,100247.83
2019-05-19T10:09:56.943Z,100243.39
2019-05-19T10:12:25.706Z,100235.79
2019-05-19T10:14:54.661Z,100240.83
2019-05-19T10:17:23.484Z,100244.16
2019-05-19T10:19:52.267Z,100228.20
2019-05-19T10:22:21.274Z,100234.51
2019-05-19T10:25:04.405Z,100239.22
2019-05-19T10:27:21.758Z,100235.58
2019-05-19T10:29:51.060Z,100230.00
2019-05-19T10:32:19.952Z,100224.70
2019-05-19T10:34:48.699Z,100225.59
2019-05-19T10:37:17.571Z,100231.47
2019-05-19T10:39:46.311Z,100222.90
2019-05-19T10:42:15.068Z,100216.55
2019-05-19T10:44:44.128Z,100208.20
2019-05-19T10:47:13.027Z,100212.02
2019-05-19T10:49:43.079Z,100205.24
2019-05-19T10:52:12.431Z,100208.81
2019-05-19T10:54:41.183Z,100205.60
2019-05-19T10:57:10.045Z,100206.87
2019-05-19T10:59:38.807Z,100203.93
2019-05-19T11:02:07.759Z,100202.02
2019-05-19T11:04:36.566Z,100191.06
2019-05-19T11:07:05.317Z,100194.11
2019-05-19T11:09:34.084Z,100192.05
2019-05-19T11:12:02.965Z,100200.66
2019-05-19T11:14:31.719Z,100192.86
2019-05-19T11:17:00.502Z,100186.77
2019-05-19T11:19:29.285Z,100185.06
2019-05-19T11:22:03.634Z,100182.04
2019-05-19T11:24:42.486Z,100199.08
2019-05-19T11:27:11.371Z,100186.97
2019-05-19T11:29:40.122Z,100189.44
2019-05-19T11:32:08.894Z,100184.72
2019-05-19T11:34:37.634Z,100184.61
2019-05-19T11:37:07.879Z,100186.13
2019-05-19T11:39:36.614Z,100182.69
2019-05-19T11:42:05.374Z,100177.30
2019-05-19T11:44:34.251Z,100178.59
2019-05-19T11:47:03.055Z,100176.02
2019-05-19T11:49:31.817Z,100173.20
2019-05-19T11:52:00.551Z,100173.75
2019-05-19T11:54:29.319Z,100181.75
2019-05-19T11:56:58.097Z,100164.91
2019-05-19T11:59:27.004Z,100163.09
2019-05-19T12:01:55.733Z,100165.80
2019-05-19T12:04:24.460Z,100158.67
2019-05-19T12:06:53.308Z,100157.16
2019-05-19T12:09:22.039Z,100155.82
2019-05-19T12:11:50.907Z,100143.55
2019-05-19T12:14:19.804Z,100141.45
2019-05-19T12:16:48.759Z,100145.36
2019-05-19T12:19:17.539Z,100148.47
2019-05-19T12:21:46.297Z,100148.91
2019-05-19T12:24:15.029Z,100149.16
2019-05-19T12:26:43.802Z,100148.97
2019-05-19T12:29:12.541Z,100142.02
2019-05-19T12:31:41.271Z,100142.14
2019-05-19T12:34:10.167Z,100143.20
2019-05-19T12:36:38.906Z,100137.56
2019-05-19T12:39:07.679Z,100120.50
2019-05-19T12:41:36.430Z,100126.16
2019-05-19T12:44:05.317Z,100119.96
2019-05-19T12:46:34.043Z,100120.98
2019-05-19T12:49:02.814Z,100115.69
2019-05-19T12:51:31.564Z,100123.86
2019-05-19T12:54:00.332Z,100118.17
2019-05-19T12:56:39.096Z,100121.76
2019-05-19T12:58:59.667Z,100112.91
2019-05-19T13:01:29.095Z,100108.09
2019-05-19T13:03:57.838Z,100105.27
2019-05-19T13:06:26.636Z,100091.63
2019-05-19T13:08:55.383Z,100109.05
2019-05-19T13:11:24.164Z,100112.20
2019-05-19T13:13:52.891Z,100106.22
2019-05-19T13:16:21.770Z,100103.04
2019-05-19T13:18:50.518Z,100106.61
2019-05-19T13:21:19.282Z,100105.84
2019-05-19T13:23:48.043Z,100108.98
2019-05-19T13:26:16.829Z,100101.72
2019-05-19T13:28:45.568Z,100101.58
2019-05-19T13:31:14.350Z,100095.08
2019-05-19T13:33:43.075Z,100093.72
2019-05-19T13:36:11.828Z,100098.33
2019-05-19T13:38:40.574Z,100092.05
2019-05-19T13:41:09.425Z,100090.74
2019-05-19T13:43:38.180Z,100092.98
2019-05-19T13:46:06.975Z,100083.22
2019-05-19T13:48:35.753Z,100086.48
2019-05-19T13:51:05.327Z,100082.89
2019-05-19T13:53:34.121Z,100072.40
2019-05-19T13:56:02.881Z,100075.25
2019-05-19T13:58:31.730Z,100076.27
2019-05-19T14:01:00.479Z,100072.40
2019-05-19T14:03:29.206Z,100070.39
2019-05-19T14:05:58.014Z,100074.04
2019-05-19T14:08:27.777Z,100078.81
2019-05-19T14:10:56.550Z,100083.90
2019-05-19T14:13:25.437Z,100083.69
2019-05-19T14:15:54.182Z,100083.44
2019-05-19T14:18:22.920Z,100082.33
2019-05-19T14:20:51.811Z,100085.00
2019-05-19T14:23:20.559Z,100082.69
2019-05-19T14:25:49.312Z,100088.88
2019-05-19T14:28:18.086Z,100083.63
2019-05-19T14:30:46.858Z,100087.02
2019-05-19T14:33:15.589Z,100082.91
2019-05-19T14:35:44.392Z,100077.22
2019-05-19T14:38:13.167Z,100078.02
2019-05-19T14:40:42.736Z,100072.64
2019-05-19T14:43:11.607Z,100072.70
2019-05-19T14:45:40.345Z,100080.55
2019-05-19T14:48:09.147Z,100067.36
2019-05-19T14:50:37.881Z,100063.59
2019-05-19T14:53:06.614Z,100058.33
2019-05-19T14:55:35.480Z,100029.45
2019-05-19T14:58:05.227Z,100049.92
2019-05-19T15:00:34.118Z,99955.23
2019-05-19T15:03:02.892Z,100051.95
2019-05-19T15:05:31.615Z,100059.73
2019-05-19T15:08:00.371Z,100053.06
2019-05-19T15:10:29.249Z,100056.19
2019-05-19T15:12:57.981Z,100056.07
2019-05-19T15:15:26.770Z,100066.61
2019-05-19T15:17:55.645Z,100070.55
2019-05-19T15:20:24.573Z,100064.77
2019-05-19T15:22:53.299Z,100064.58
2019-05-19T15:25:22.089Z,100067.57
2019-05-19T15:27:59.872Z,100067.96
2019-05-19T15:30:21.536Z,100063.11
2019-05-19T15:32:50.495Z,100065.22
2019-05-19T15:35:19.451Z,100060.03
2019-05-19T15:37:48.187Z,100062.45
2019-05-19T15:40:16.909Z,100063.03
2019-05-19T15:42:45.804Z,100060.77
2019-05-19T15:45:15.980Z,100060.63
2019-05-19T15:47:44.761Z,100054.95
2019-05-19T15:50:13.532Z,100050.56
2019-05-19T15:52:42.265Z,100047.58
2019-05-19T15:55:11.143Z,100044.47
2019-05-19T15:57:39.921Z,100037.14
2019-05-19T16:00:10.580Z,100035.98
2019-05-19T16:02:39.316Z,100030.49
2019-05-19T16:05:08.395Z,100037.49
2019-05-19T16:07:37.561Z,100050.91
2019-05-19T16:10:11.261Z,100062.59
2019-05-19T16:12:40.022Z,100045.51
2019-05-19T16:15:09.787Z,100064.60
2019-05-19T16:17:38.527Z,100062.47
2019-05-19T16:20:10.396Z,100073.76
2019-05-19T16:22:39.122Z,100095.73
2019-05-19T16:25:13.827Z,100099.84
2019-05-19T16:27:58.266Z,100098.28
2019-05-19T16:30:28.219Z,100101.19
2019-05-19T16:32:57.409Z,100081.45
2019-05-19T16:35:27.045Z,100075.23
2019-05-19T16:37:56.590Z,100071.80
2019-05-19T16:40:25.969Z,100080.48
2019-05-19T16:42:54.897Z,100080.77
2019-05-19T16:45:24.549Z,100092.63
2019-05-19T16:47:53.843Z,100078.48
2019-05-19T16:50:23.301Z,100073.17
2019-05-19T16:52:52.867Z,100081.09
2019-05-19T16:55:23.754Z,100070.91
2019-05-19T16:57:53.014Z,100062.30
2019-05-19T17:00:22.539Z,100068.80
2019-05-19T17:02:51.557Z,100073.58
2019-05-19T17:05:20.999Z,100072.78
2019-05-19T17:07:51.435Z,100089.13
2019-05-19T17:10:20.968Z,100100.95
2019-05-19T17:12:50.445Z,100100.50
2019-05-19T17:15:19.896Z,100116.17
2019-05-19T17:17:49.438Z,100135.26
2019-05-19T17:20:21.626Z,100165.18
2019-05-19T17:22:50.449Z,100165.69
2019-05-19T17:25:19.250Z,100161.83
2019-05-19T17:27:48.021Z,100150.34
2019-05-19T17:30:17.720Z,100146.44
2019-05-19T17:32:46.495Z,100144.42
2019-05-19T17:35:15.277Z,100146.63
2019-05-19T17:37:44.016Z,100152.03
2019-05-19T17:40:14.561Z,100157.67
2019-05-19T17:42:43.301Z,100158.00
2019-05-19T17:45:12.690Z,100161.91
2019-05-19T17:47:43.070Z,100161.83
2019-05-19T17:50:13.360Z,100159.66
2019-05-19T17:52:42.122Z,100156.11
2019-05-19T17:55:11.162Z,100162.78
2019-05-19T17:57:40.309Z,100169.20
2019-05-19T18:00:10.289Z,100170.98
2019-05-19T18:02:39.379Z,100181.79
2019-05-19T18:05:08.442Z,100181.05
2019-05-19T18:07:37.293Z,100187.97
2019-05-19T18:10:08.113Z,100198.19
2019-05-19T18:12:36.900Z,100204.19
2019-05-19T18:15:08.302Z,100213.18
2019-05-19T18:17:37.030Z,100220.37
2019-05-19T18:20:07.590Z,100225.98
2019-05-19T18:22:36.400Z,100224.95
2019-05-19T18:25:07.213Z,100221.02
2019-05-19T18:27:36.196Z,100222.83
2019-05-19T18:30:07.251Z,100218.98
2019-05-19T18:32:36.051Z,100232.31
2019-05-19T18:35:07.464Z,100232.31
2019-05-19T18:37:36.235Z,100229.20
2019-05-19T18:40:08.366Z,100253.93
2019-05-19T18:42:37.231Z,100217.94
2019-05-19T18:45:08.500Z,100243.30
2019-05-19T18:47:39.908Z,100242.92
2019-05-19T18:50:08.822Z,100234.46
2019-05-19T18:52:37.556Z,100235.47
2019-05-19T18:55:09.680Z,100233.76
2019-05-19T18:57:38.543Z,100236.30
2019-05-19T19:00:08.705Z,100234.90
2019-05-19T19:02:37.475Z,100229.23
2019-05-19T19:05:07.431Z,100230.05
2019-05-19T19:07:50.108Z,100223.58
2019-05-19T19:10:18.877Z,100214.09
2019-05-19T19:12:48.034Z,100217.78
2019-05-19T19:15:16.843Z,100215.48
2019-05-19T19:17:45.673Z,100220.33
2019-05-19T19:20:14.677Z,100221.09
2019-05-19T19:22:45.331Z,100227.55
2019-05-19T19:25:14.184Z,100234.09
2019-05-19T19:27:42.975Z,100239.98
2019-05-19T19:30:12.377Z,100246.59
2019-05-19T19:32:41.153Z,100245.81
2019-05-19T19:35:10.045Z,100247.52
2019-05-19T19:37:38.852Z,100250.30
2019-05-19T19:40:08.687Z,100252.28
2019-05-19T19:42:37.458Z,100254.25
2019-05-19T19:45:07.936Z,100251.05
2019-05-19T19:47:36.680Z,100253.38
2019-05-19T19:50:09.900Z,100248.03
2019-05-19T19:52:38.670Z,100251.77
2019-05-19T19:55:08.008Z,100252.12
2019-05-19T19:57:36.834Z,100258.98
2019-05-19T20:00:17.896Z,100266.20
2019-05-19T20:02:37.721Z,100272.86
2019-05-19T20:05:06.901Z,100269.38
2019-05-19T20:07:35.677Z,100263.66
2019-05-19T20:10:06.650Z,100262.82
2019-05-19T20:12:35.435Z,100255.69
2019-05-19T20:15:05.393Z,100263.60
2019-05-19T20:17:34.231Z,100257.60
2019-05-19T20:20:03.004Z,100262.77
2019-05-19T20:22:31.751Z,100255.19
2019-05-19T20:25:00.656Z,100254.64
2019-05-19T20:27:29.432Z,100254.44
2019-05-19T20:29:58.342Z,100260.17
2019-05-19T20:32:27.126Z,100268.66
2019-05-19T20:34:56.033Z,100256.34
2019-05-19T20:37:24.801Z,100254.88
2019-05-19T20:39:55.206Z,100250.73
2019-05-19T20:42:23.985Z,100245.48
2019-05-19T20:44:53.005Z,100245.41
2019-05-19T20:47:21.894Z,100246.52
2019-05-19T20:49:50.769Z,100246.25
2019-05-19T20:52:19.566Z,100240.96
2019-05-19T20:54:48.414Z,100243.89
2019-05-19T20:57:17.198Z,100249.95
2019-05-19T20:59:45.957Z,100258.68
2019-05-19T21:02:14.794Z,100264.68
2019-05-19T21:04:43.628Z,100257.00
2019-05-19T21:07:12.396Z,100265.17
2019-05-19T21:09:41.169Z,100270.41
2019-05-19T21:12:10.023Z,100275.58
2019-05-19T21:14:38.838Z,100291.46
2019-05-19T21:17:07.590Z,100287.69
2019-05-19T21:19:36.502Z,100287.95
2019-05-19T21:22:05.294Z,100294.55
2019-05-19T21:24:34.044Z,100302.13
2019-05-19T21:27:02.818Z,100302.73
2019-05-19T21:29:33.188Z,100306.38
2019-05-19T21:32:01.930Z,100298.16
2019-05-19T21:34:30.769Z,100287.35
2019-05-19T21:36:59.558Z,100280.41
2019-05-19T21:39:28.312Z,100270.66
2019-05-19T21:41:57.128Z,100273.03
2019-05-19T21:44:25.874Z,100272.42
2019-05-19T21:46:54.639Z,100271.19
2019-05-19T21:49:23.509Z,100271.05
2019-05-19T21:51:52.289Z,100277.36
2019-05-19T21:54:21.036Z,100269.52
2019-05-19T21:56:49.802Z,100271.41
2019-05-19T21:59:18.567Z,100264.94
2019-05-19T22:01:47.318Z,100261.71
2019-05-19T22:04:16.104Z,100263.53
2019-05-19T22:06:46.511Z,100264.34
2019-05-19T22:09:15.269Z,100266.80
2019-05-19T22:11:44.079Z,100265.22
2019-05-19T22:14:12.836Z,100259.99
2019-05-19T22:16:41.595Z,100261.12
2019-05-19T22:19:10.371Z,100265.20
2019-05-19T22:21:39.123Z,100260.54
2019-05-19T22:24:07.962Z,100265.22
2019-05-19T22:26:36.725Z,100259.27
2019-05-19T22:29:06.320Z,100267.16
2019-05-19T22:31:37.178Z,100279.83
2019-05-19T22:34:05.689Z,100273.97
2019-05-19T22:36:34.426Z,100271.70
2019-05-19T22:39:12.388Z,100274.09
2019-05-19T22:41:41.689Z,100269.70
2019-05-19T22:44:10.438Z,100262.30
2019-05-19T22:46:39.207Z,100265.28
2019-05-19T22:49:07.937Z,100262.44
2019-05-19T22:51:36.825Z,100261.58
2019-05-19T22:54:07.126Z,100256.45
2019-05-19T22:56:35.880Z,100254.91
2019-05-19T22:59:18.827Z,100252.46
2019-05-19T23:01:35.484Z,100251.96
2019-05-19T23:04:05.107Z,100247.66
2019-05-19T23:06:33.964Z,100240.73
2019-05-19T23:09:02.800Z,100240.73
2019-05-19T23:11:31.562Z,100234.61
2019-05-19T23:14:00.431Z,100245.31
2019-05-19T23:16:29.182Z,100238.81
2019-05-19T23:18:57.938Z,100244.27
2019-05-19T23:21:26.717Z,100242.12
2019-05-19T23:23:55.451Z,100240.77
2019-05-19T23:26:24.245Z,100239.69
2019-05-19T23:28:52.982Z,100235.23
2019-05-19T23:31:21.729Z,100241.03
2019-05-19T23:33:50.585Z,100243.48
2019-05-19T23:36:19.328Z,100240.30
2019-05-19T23:38:48.064Z,100244.73
2019-05-19T23:41:16.871Z,100244.31
2019-05-19T23:43:45.614Z,100238.44
2019-05-19T23:46:14.391Z,100242.39
2019-05-19T23:48:43.158Z,100243.52
2019-05-19T23:51:11.906Z,100242.73
2019-05-19T23:53:40.672Z,100239.81
2019-05-19T23:56:09.467Z,100235.57
2019-05-19T23:58:38.201Z,100228.84
